sensor_id;sensor_type;location;lat;lon;timestamp;pressure;altitude;pressure_sealevel;temperature;humidity
49297;BME280;35163;48.878;18.040;2023-11-21T00:01:16;97803.91;;;10.66;70.33
49297;BME280;35163;48.878;18.040;2023-11-21T00:03:43;97798.88;;;10.63;70.15
49297;BME280;35163;48.878;18.040;2023-11-21T00:06:10;97806.63;;;10.63;69.92
49297;BME280;35163;48.878;18.040;2023-11-21T00:08:37;97812.59;;;10.65;70.08
49297;BME280;35163;48.878;18.040;2023-11-21T00:11:04;97817.69;;;10.67;69.76
49297;BME280;35163;48.878;18.040;2023-11-21T00:13:34;97810.00;;;10.65;70.27
49297;BME280;35163;48.878;18.040;2023-11-21T00:16:01;97808.41;;;10.63;70.05
49297;BME280;35163;48.878;18.040;2023-11-21T00:18:28;97816.03;;;10.66;70.41
49297;BME280;35163;48.878;18.040;2023-11-21T00:20:55;97808.34;;;10.64;70.14
49297;BME280;35163;48.878;18.040;2023-11-21T00:23:24;97806.56;;;10.65;70.43
49297;BME280;35163;48.878;18.040;2023-11-21T00:25:52;97798.00;;;10.64;69.90
49297;BME280;35163;48.878;18.040;2023-11-21T00:28:18;97800.50;;;10.66;70.15
49297;BME280;35163;48.878;18.040;2023-11-21T00:30:45;97796.28;;;10.63;70.52
49297;BME280;35163;48.878;18.040;2023-11-21T00:33:12;97802.31;;;10.64;70.43
49297;BME280;35163;48.878;18.040;2023-11-21T00:35:39;97798.06;;;10.63;70.47
49297;BME280;35163;48.878;18.040;2023-11-21T00:38:06;97798.00;;;10.64;69.94
49297;BME280;35163;48.878;18.040;2023-11-21T00:40:35;97804.97;;;10.62;69.18
49297;BME280;35163;48.878;18.040;2023-11-21T00:43:02;97794.63;;;10.62;69.48
49297;BME280;35163;48.878;18.040;2023-11-21T00:45:31;97796.41;;;10.60;69.30
49297;BME280;35163;48.878;18.040;2023-11-21T00:47:58;97789.50;;;10.61;69.26
49297;BME280;35163;48.878;18.040;2023-11-21T00:50:25;97792.16;;;10.59;69.68
49297;BME280;35163;48.878;18.040;2023-11-21T00:52:52;97786.00;;;10.62;69.32
49297;BME280;35163;48.878;18.040;2023-11-21T00:55:19;97779.25;;;10.59;69.52
49297;BME280;35163;48.878;18.040;2023-11-21T00:57:45;97777.41;;;10.61;69.21
49297;BME280;35163;48.878;18.040;2023-11-21T01:00:13;97774.81;;;10.61;69.87
49297;BME280;35163;48.878;18.040;2023-11-21T01:02:46;97774.81;;;10.61;69.56
49297;BME280;35163;48.878;18.040;2023-11-21T01:05:13;97779.25;;;10.59;69.72
49297;BME280;35163;48.878;18.040;2023-11-21T01:07:40;97777.53;;;10.58;69.73
49297;BME280;35163;48.878;18.040;2023-11-21T01:10:07;97774.19;;;10.56;69.83
49297;BME280;35163;48.878;18.040;2023-11-21T01:12:37;97766.38;;;10.57;69.51
49297;BME280;35163;48.878;18.040;2023-11-21T01:15:05;97772.31;;;10.60;69.50
49297;BME280;35163;48.878;18.040;2023-11-21T01:17:35;97772.50;;;10.55;69.28
49297;BME280;35163;48.878;18.040;2023-11-21T01:20:03;97779.31;;;10.57;69.58
49297;BME280;35163;48.878;18.040;2023-11-21T01:22:33;97773.28;;;10.57;69.59
49297;BME280;35163;48.878;18.040;2023-11-21T01:24:59;97784.50;;;10.56;69.91
49297;BME280;35163;48.878;18.040;2023-11-21T01:27:26;97780.47;;;10.50;69.64
49297;BME280;35163;48.878;18.040;2023-11-21T01:29:53;97789.00;;;10.52;69.44
49297;BME280;35163;48.878;18.040;2023-11-21T01:32:20;97788.28;;;10.49;69.26
49297;BME280;35163;48.878;18.040;2023-11-21T01:34:49;97787.47;;;10.47;68.87
49297;BME280;35163;48.878;18.040;2023-11-21T01:37:16;97791.84;;;10.44;68.77
49297;BME280;35163;48.878;18.040;2023-11-21T01:39:44;97786.69;;;10.44;69.06
49297;BME280;35163;48.878;18.040;2023-11-21T01:42:11;97794.50;;;10.43;68.92
49297;BME280;35163;48.878;18.040;2023-11-21T01:44:39;97790.31;;;10.40;68.43
49297;BME280;35163;48.878;18.040;2023-11-21T01:47:07;97792.84;;;10.42;68.77
49297;BME280;35163;48.878;18.040;2023-11-21T01:49:35;97795.53;;;10.39;68.34
49297;BME280;35163;48.878;18.040;2023-11-21T01:52:03;97794.75;;;10.37;68.37
49297;BME280;35163;48.878;18.040;2023-11-21T01:54:31;97793.97;;;10.35;68.34
49297;BME280;35163;48.878;18.040;2023-11-21T01:57:01;97793.97;;;10.35;68.77
49297;BME280;35163;48.878;18.040;2023-11-21T01:59:35;97787.06;;;10.35;68.84
49297;BME280;35163;48.878;18.040;2023-11-21T02:02:05;97785.44;;;10.32;69.12
49297;BME280;35163;48.878;18.040;2023-11-21T02:04:33;97782.13;;;10.29;68.58
49297;BME280;35163;48.878;18.040;2023-11-21T02:07:00;97784.00;;;10.25;68.37
49297;BME280;35163;48.878;18.040;2023-11-21T02:09:27;97790.09;;;10.24;68.59
49297;BME280;35163;48.878;18.040;2023-11-21T02:11:56;97793.66;;;10.21;68.55
49297;BME280;35163;48.878;18.040;2023-11-21T02:14:27;97791.16;;;10.18;68.75
49297;BME280;35163;48.878;18.040;2023-11-21T02:16:55;97795.56;;;10.16;68.91
49297;BME280;35163;48.878;18.040;2023-11-21T02:19:24;97796.53;;;10.14;69.30
49297;BME280;35163;48.878;18.040;2023-11-21T02:21:52;97789.75;;;10.11;69.14
49297;BME280;35163;48.878;18.040;2023-11-21T02:24:23;97799.22;;;10.11;69.41
49297;BME280;35163;48.878;18.040;2023-11-21T02:26:53;97795.84;;;10.08;69.08
49297;BME280;35163;48.878;18.040;2023-11-21T02:29:20;97790.03;;;10.03;69.40
49297;BME280;35163;48.878;18.040;2023-11-21T02:31:55;97785.72;;;10.04;69.92
49297;BME280;35163;48.878;18.040;2023-11-21T02:34:22;97787.56;;;10.00;69.81
49297;BME280;35163;48.878;18.040;2023-11-21T02:36:50;97789.97;;;10.05;69.76
49297;BME280;35163;48.878;18.040;2023-11-21T02:39:18;97797.06;;;10.00;69.90
49297;BME280;35163;48.878;18.040;2023-11-21T02:41:44;97792.75;;;10.00;70.12
49297;BME280;35163;48.878;18.040;2023-11-21T02:44:11;97794.47;;;10.00;70.55
49297;BME280;35163;48.878;18.040;2023-11-21T02:46:38;97779.88;;;9.99;69.96
49297;BME280;35163;48.878;18.040;2023-11-21T02:49:06;97787.69;;;9.97;69.80
49297;BME280;35163;48.878;18.040;2023-11-21T02:51:33;97788.66;;;9.94;69.97
49297;BME280;35163;48.878;18.040;2023-11-21T02:54:00;97786.97;;;9.93;70.74
49297;BME280;35163;48.878;18.040;2023-11-21T02:56:29;97789.69;;;9.90;70.09
49297;BME280;35163;48.878;18.040;2023-11-21T02:58:56;97794.97;;;9.87;70.11
49297;BME280;35163;48.878;18.040;2023-11-21T03:01:23;97788.97;;;9.87;70.65
49297;BME280;35163;48.878;18.040;2023-11-21T03:03:53;97795.91;;;9.84;70.47
49297;BME280;35163;48.878;18.040;2023-11-21T03:06:22;97792.53;;;9.82;69.93
49297;BME280;35163;48.878;18.040;2023-11-21T03:08:50;97781.28;;;9.85;70.28
49297;BME280;35163;48.878;18.040;2023-11-21T03:11:17;97782.16;;;9.84;70.18
49297;BME280;35163;48.878;18.040;2023-11-21T03:13:44;97784.03;;;9.80;70.41
49297;BME280;35163;48.878;18.040;2023-11-21T03:16:12;97768.56;;;9.79;70.23
49297;BME280;35163;48.878;18.040;2023-11-21T03:18:39;97771.13;;;9.80;70.21
49297;BME280;35163;48.878;18.040;2023-11-21T03:21:07;97769.50;;;9.78;70.20
49297;BME280;35163;48.878;18.040;2023-11-21T03:23:37;97768.69;;;9.76;70.48
49297;BME280;35163;48.878;18.040;2023-11-21T03:26:04;97764.38;;;9.76;69.95
49297;BME280;35163;48.878;18.040;2023-11-21T03:28:35;97754.91;;;9.77;70.03
49297;BME280;35163;48.878;18.040;2023-11-21T03:31:01;97756.66;;;9.76;69.60
49297;BME280;35163;48.878;18.040;2023-11-21T03:33:28;97755.00;;;9.73;70.05
49297;BME280;35163;48.878;18.040;2023-11-21T03:35:55;97752.50;;;9.72;70.15
49297;BME280;35163;48.878;18.040;2023-11-21T03:38:21;97756.03;;;9.69;70.07
49297;BME280;35163;48.878;18.040;2023-11-21T03:40:48;97746.50;;;9.71;70.22
49297;BME280;35163;48.878;18.040;2023-11-21T03:43:15;97751.66;;;9.71;69.98
49297;BME280;35163;48.878;18.040;2023-11-21T03:45:42;97741.47;;;9.68;69.88
49297;BME280;35163;48.878;18.040;2023-11-21T03:48:12;97748.41;;;9.66;70.28
49297;BME280;35163;48.878;18.040;2023-11-21T03:50:38;97753.72;;;9.63;70.44
49297;BME280;35163;48.878;18.040;2023-11-21T03:53:05;97755.50;;;9.61;70.39
49297;BME280;35163;48.878;18.040;2023-11-21T03:55:32;97745.31;;;9.58;70.37
49297;BME280;35163;48.878;18.040;2023-11-21T03:57:59;97751.34;;;9.57;70.31
49297;BME280;35163;48.878;18.040;2023-11-21T04:00:25;97751.41;;;9.55;70.36
49297;BME280;35163;48.878;18.040;2023-11-21T04:02:53;97760.00;;;9.56;70.76
49297;BME280;35163;48.878;18.040;2023-11-21T04:05:21;97749.84;;;9.51;70.46
49297;BME280;35163;48.878;18.040;2023-11-21T04:07:51;97758.34;;;9.53;70.27
49297;BME280;35163;48.878;18.040;2023-11-21T04:10:18;97761.00;;;9.52;70.99
49297;BME280;35163;48.878;18.040;2023-11-21T04:12:45;97758.47;;;9.50;70.51
49297;BME280;35163;48.878;18.040;2023-11-21T04:15:12;97751.72;;;9.47;70.94
49297;BME280;35163;48.878;18.040;2023-11-21T04:17:41;97749.13;;;9.47;70.79
49297;BME280;35163;48.878;18.040;2023-11-21T04:20:09;97748.41;;;9.44;69.92
49297;BME280;35163;48.878;18.040;2023-11-21T04:22:40;97747.53;;;9.43;70.68
49297;BME280;35163;48.878;18.040;2023-11-21T04:25:08;97748.53;;;9.41;70.33
49297;BME280;35163;48.878;18.040;2023-11-21T04:27:36;97754.63;;;9.38;70.86
49297;BME280;35163;48.878;18.040;2023-11-21T04:30:05;97753.75;;;9.39;70.91
49297;BME280;35163;48.878;18.040;2023-11-21T04:32:33;97754.78;;;9.33;70.02
49297;BME280;35163;48.878;18.040;2023-11-21T04:35:00;97760.91;;;9.31;70.44
49297;BME280;35163;48.878;18.040;2023-11-21T04:37:26;97750.69;;;9.28;70.36
49297;BME280;35163;48.878;18.040;2023-11-21T04:39:53;97749.03;;;9.27;70.93
49297;BME280;35163;48.878;18.040;2023-11-21T04:42:20;97743.13;;;9.23;70.88
49297;BME280;35163;48.878;18.040;2023-11-21T04:44:47;97743.25;;;9.20;70.93
49297;BME280;35163;48.878;18.040;2023-11-21T04:47:14;97743.41;;;9.15;70.76
49297;BME280;35163;48.878;18.040;2023-11-21T04:49:42;97744.25;;;9.16;71.30
49297;BME280;35163;48.878;18.040;2023-11-21T04:52:09;97745.97;;;9.15;71.12
49297;BME280;35163;48.878;18.040;2023-11-21T04:54:36;97754.56;;;9.16;70.70
49297;BME280;35163;48.878;18.040;2023-11-21T04:57:03;97755.41;;;9.16;70.70
49297;BME280;35163;48.878;18.040;2023-11-21T04:59:31;97766.66;;;9.14;70.28
49297;BME280;35163;48.878;18.040;2023-11-21T05:01:58;97762.47;;;9.11;70.28
49297;BME280;35163;48.878;18.040;2023-11-21T05:04:26;97771.22;;;9.07;70.39
49297;BME280;35163;48.878;18.040;2023-11-21T05:06:54;97767.06;;;9.03;70.45
49297;BME280;35163;48.878;18.040;2023-11-21T05:09:21;97769.53;;;9.06;70.09
49297;BME280;35163;48.878;18.040;2023-11-21T05:11:48;97771.44;;;9.01;70.25
49297;BME280;35163;48.878;18.040;2023-11-21T05:14:15;97786.22;;;8.95;70.29
49297;BME280;35163;48.878;18.040;2023-11-21T05:16:42;97781.97;;;8.94;70.85
49297;BME280;35163;48.878;18.040;2023-11-21T05:19:09;97784.75;;;8.88;70.92
49297;BME280;35163;48.878;18.040;2023-11-21T05:21:35;97795.97;;;8.87;70.15
49297;BME280;35163;48.878;18.040;2023-11-21T05:24:02;97789.44;;;8.77;70.40
49297;BME280;35163;48.878;18.040;2023-11-21T05:26:29;97792.06;;;8.75;70.92
49297;BME280;35163;48.878;18.040;2023-11-21T05:28:56;97792.25;;;8.70;71.00
49297;BME280;35163;48.878;18.040;2023-11-21T05:31:23;97806.22;;;8.63;70.86
49297;BME280;35163;48.878;18.040;2023-11-21T05:33:50;97807.09;;;8.62;70.68
49297;BME280;35163;48.878;18.040;2023-11-21T05:36:16;97814.69;;;8.67;70.96
49297;BME280;35163;48.878;18.040;2023-11-21T05:38:43;97811.06;;;8.72;71.84
49297;BME280;35163;48.878;18.040;2023-11-21T05:41:10;97816.06;;;8.77;71.57
49297;BME280;35163;48.878;18.040;2023-11-21T05:43:40;97821.19;;;8.79;71.56
49297;BME280;35163;48.878;18.040;2023-11-21T05:46:07;97815.22;;;8.77;71.55
49297;BME280;35163;48.878;18.040;2023-11-21T05:48:34;97826.28;;;8.80;71.78
49297;BME280;35163;48.878;18.040;2023-11-21T05:51:06;97822.78;;;8.81;71.84
49297;BME280;35163;48.878;18.040;2023-11-21T05:53:33;97828.81;;;8.82;72.31
49297;BME280;35163;48.878;18.040;2023-11-21T05:56:00;97831.44;;;8.80;71.88
49297;BME280;35163;48.878;18.040;2023-11-21T05:58:26;97825.25;;;8.84;72.21
49297;BME280;35163;48.878;18.040;2023-11-21T06:00:53;97824.44;;;8.84;71.94
49297;BME280;35163;48.878;18.040;2023-11-21T06:03:20;97833.84;;;8.85;71.74
49297;BME280;35163;48.878;18.040;2023-11-21T06:05:47;97817.47;;;8.86;71.93
49297;BME280;35163;48.878;18.040;2023-11-21T06:08:14;97821.00;;;8.83;71.89
49297;BME280;35163;48.878;18.040;2023-11-21T06:10:43;97826.22;;;8.82;72.26
49297;BME280;35163;48.878;18.040;2023-11-21T06:13:10;97830.59;;;8.80;72.47
49297;BME280;35163;48.878;18.040;2023-11-21T06:15:37;97836.59;;;8.80;72.13
49297;BME280;35163;48.878;18.040;2023-11-21T06:18:04;97839.91;;;8.84;72.84
49297;BME280;35163;48.878;18.040;2023-11-21T06:20:33;97850.97;;;8.87;72.21
49297;BME280;35163;48.878;18.040;2023-11-21T06:22:59;97833.75;;;8.88;72.49
49297;BME280;35163;48.878;18.040;2023-11-21T06:25:30;97844.91;;;8.89;72.46
49297;BME280;35163;48.878;18.040;2023-11-21T06:28:00;97849.09;;;8.91;72.04
49297;BME280;35163;48.878;18.040;2023-11-21T06:30:27;97854.19;;;8.94;72.21
49297;BME280;35163;48.878;18.040;2023-11-21T06:32:55;97855.00;;;8.95;71.66
49297;BME280;35163;48.878;18.040;2023-11-21T06:35:22;97855.00;;;8.95;71.09
49297;BME280;35163;48.878;18.040;2023-11-21T06:37:49;97855.00;;;8.95;70.54
49297;BME280;35163;48.878;18.040;2023-11-21T06:40:18;97852.38;;;8.96;70.46
49297;BME280;35163;48.878;18.040;2023-11-21T06:42:46;97859.22;;;8.97;70.33
49297;BME280;35163;48.878;18.040;2023-11-21T06:45:14;97856.66;;;8.97;70.51
49297;BME280;35163;48.878;18.040;2023-11-21T06:47:42;97862.59;;;8.99;70.22
49297;BME280;35163;48.878;18.040;2023-11-21T06:50:09;97869.44;;;9.01;70.27
49297;BME280;35163;48.878;18.040;2023-11-21T06:52:36;97871.03;;;9.03;70.29
49297;BME280;35163;48.878;18.040;2023-11-21T06:55:03;97860.78;;;9.02;70.74
49297;BME280;35163;48.878;18.040;2023-11-21T06:57:31;97869.31;;;9.04;70.43
49297;BME280;35163;48.878;18.040;2023-11-21T06:59:58;97867.44;;;9.09;70.20
49297;BME280;35163;48.878;18.040;2023-11-21T07:02:24;97871.72;;;9.08;70.26
49297;BME280;35163;48.878;18.040;2023-11-21T07:04:51;97870.81;;;9.11;70.17
49297;BME280;35163;48.878;18.040;2023-11-21T07:07:18;97873.31;;;9.13;70.52
49297;BME280;35163;48.878;18.040;2023-11-21T07:09:45;97886.06;;;9.17;70.34
49297;BME280;35163;48.878;18.040;2023-11-21T07:12:12;97878.22;;;9.20;70.15
49297;BME280;35163;48.878;18.040;2023-11-21T07:14:40;97872.16;;;9.21;70.39
49297;BME280;35163;48.878;18.040;2023-11-21T07:17:10;97872.06;;;9.24;70.06
49297;BME280;35163;48.878;18.040;2023-11-21T07:19:36;97882.25;;;9.28;70.05
49297;BME280;35163;48.878;18.040;2023-11-21T07:22:03;97883.06;;;9.30;70.00
49297;BME280;35163;48.878;18.040;2023-11-21T07:24:32;97887.19;;;9.35;70.24
49297;BME280;35163;48.878;18.040;2023-11-21T07:26:59;97881.97;;;9.37;69.61
49297;BME280;35163;48.878;18.040;2023-11-21T07:29:27;97891.19;;;9.43;70.14
49297;BME280;35163;48.878;18.040;2023-11-21T07:31:56;97885.09;;;9.45;70.43
49297;BME280;35163;48.878;18.040;2023-11-21T07:34:23;97883.22;;;9.51;69.74
49297;BME280;35163;48.878;18.040;2023-11-21T07:36:49;97883.09;;;9.54;69.86
49297;BME280;35163;48.878;18.040;2023-11-21T07:39:16;97888.13;;;9.57;69.69
49297;BME280;35163;48.878;18.040;2023-11-21T07:41:43;97886.28;;;9.60;70.02
49297;BME280;35163;48.878;18.040;2023-11-21T07:44:18;97884.44;;;9.64;69.62
49297;BME280;35163;48.878;18.040;2023-11-21T07:46:46;97880.88;;;9.68;69.48
49297;BME280;35163;48.878;18.040;2023-11-21T07:49:13;97882.47;;;9.71;69.93
49297;BME280;35163;48.878;18.040;2023-11-21T07:51:47;97887.47;;;9.76;69.89
49297;BME280;35163;48.878;18.040;2023-11-21T07:54:14;97885.56;;;9.81;69.57
49297;BME280;35163;48.878;18.040;2023-11-21T07:56:40;97889.00;;;9.81;69.35
49297;BME280;35163;48.878;18.040;2023-11-21T07:59:07;97884.50;;;9.87;69.11
49297;BME280;35163;48.878;18.040;2023-11-21T08:01:34;97893.09;;;9.87;69.44
49297;BME280;35163;48.878;18.040;2023-11-21T08:04:01;97887.81;;;9.90;69.30
49297;BME280;35163;48.878;18.040;2023-11-21T08:06:31;97885.91;;;9.95;69.29
49297;BME280;35163;48.878;18.040;2023-11-21T08:08:58;97891.00;;;9.97;68.32
49297;BME280;35163;48.878;18.040;2023-11-21T08:11:25;97881.53;;;9.98;68.85
49297;BME280;35163;48.878;18.040;2023-11-21T08:13:53;97892.56;;;10.01;69.04
49297;BME280;35163;48.878;18.040;2023-11-21T08:16:21;97889.09;;;10.02;68.82
49297;BME280;35163;48.878;18.040;2023-11-21T08:18:47;97900.25;;;10.03;68.58
49297;BME280;35163;48.878;18.040;2023-11-21T08:21:14;97899.25;;;10.07;68.58
49297;BME280;35163;48.878;18.040;2023-11-21T08:23:41;97909.47;;;10.10;68.66
49297;BME280;35163;48.878;18.040;2023-11-21T08:26:08;97907.66;;;10.12;68.35
49297;BME280;35163;48.878;18.040;2023-11-21T08:28:35;97910.13;;;10.15;68.30
49297;BME280;35163;48.878;18.040;2023-11-21T08:31:02;97910.06;;;10.17;68.64
49297;BME280;35163;48.878;18.040;2023-11-21T08:33:29;97910.78;;;10.20;68.65
49297;BME280;35163;48.878;18.040;2023-11-21T08:35:55;97910.72;;;10.22;69.35
49297;BME280;35163;48.878;18.040;2023-11-21T08:38:22;97912.38;;;10.25;68.71
49297;BME280;35163;48.878;18.040;2023-11-21T08:40:49;97912.38;;;10.25;68.46
49297;BME280;35163;48.878;18.040;2023-11-21T08:43:16;97907.97;;;10.27;68.15
49297;BME280;35163;48.878;18.040;2023-11-21T08:45:46;97910.59;;;10.25;68.06
49297;BME280;35163;48.878;18.040;2023-11-21T08:48:13;97910.50;;;10.28;67.85
49297;BME280;35163;48.878;18.040;2023-11-21T08:50:40;97907.09;;;10.28;67.57
49297;BME280;35163;48.878;18.040;2023-11-21T08:53:07;97912.91;;;10.33;67.81
49297;BME280;35163;48.878;18.040;2023-11-21T08:55:34;97907.63;;;10.36;67.60
49297;BME280;35163;48.878;18.040;2023-11-21T08:58:04;97908.41;;;10.38;67.96
49297;BME280;35163;48.878;18.040;2023-11-21T09:00:32;97918.69;;;10.40;67.36
49297;BME280;35163;48.878;18.040;2023-11-21T09:03:01;97909.19;;;10.40;67.32
49297;BME280;35163;48.878;18.040;2023-11-21T09:05:28;97922.88;;;10.42;67.48
49297;BME280;35163;48.878;18.040;2023-11-21T09:07:55;97927.22;;;10.42;67.29
49297;BME280;35163;48.878;18.040;2023-11-21T09:10:22;97922.78;;;10.45;67.35
49297;BME280;35163;48.878;18.040;2023-11-21T09:12:49;97918.31;;;10.51;66.62
49297;BME280;35163;48.878;18.040;2023-11-21T09:15:16;97924.25;;;10.53;67.02
49297;BME280;35163;48.878;18.040;2023-11-21T09:17:43;97931.16;;;10.52;67.21
49297;BME280;35163;48.878;18.040;2023-11-21T09:20:11;97926.81;;;10.53;66.69
49297;BME280;35163;48.878;18.040;2023-11-21T09:22:38;97921.59;;;10.54;66.54
49297;BME280;35163;48.878;18.040;2023-11-21T09:25:05;97922.50;;;10.53;66.76
49297;BME280;35163;48.878;18.040;2023-11-21T09:27:34;97924.06;;;10.57;66.59
49297;BME280;35163;48.878;18.040;2023-11-21T09:30:02;97924.91;;;10.58;67.07
49297;BME280;35163;48.878;18.040;2023-11-21T09:32:31;97920.50;;;10.60;66.54
49297;BME280;35163;48.878;18.040;2023-11-21T09:34:58;97929.06;;;10.62;66.99
49297;BME280;35163;48.878;18.040;2023-11-21T09:37:25;97919.50;;;10.64;66.49
49297;BME280;35163;48.878;18.040;2023-11-21T09:39:53;97922.09;;;10.64;66.90
49297;BME280;35163;48.878;18.040;2023-11-21T09:42:39;97917.63;;;10.68;66.61
49297;BME280;35163;48.878;18.040;2023-11-21T09:45:18;97915.81;;;10.70;66.37
49297;BME280;35163;48.878;18.040;2023-11-21T09:47:47;97911.44;;;10.72;66.60
49297;BME280;35163;48.878;18.040;2023-11-21T09:50:17;97913.81;;;10.77;66.03
49297;BME280;35163;48.878;18.040;2023-11-21T09:55:46;97913.72;;;10.80;65.43
49297;BME280;35163;48.878;18.040;2023-11-21T09:58:14;97926.53;;;10.83;65.57
49297;BME280;35163;48.878;18.040;2023-11-21T10:00:43;97922.06;;;10.87;66.26
49297;BME280;35163;48.878;18.040;2023-11-21T10:03:12;97922.66;;;10.93;65.99
49297;BME280;35163;48.878;18.040;2023-11-21T10:05:41;97918.13;;;10.99;65.86
49297;BME280;35163;48.878;18.040;2023-11-21T10:08:10;97914.56;;;11.01;66.25
49297;BME280;35163;48.878;18.040;2023-11-21T10:10:37;97912.63;;;11.06;66.24
49297;BME280;35163;48.878;18.040;2023-11-21T10:13:06;97913.34;;;11.10;66.04
49297;BME280;35163;48.878;18.040;2023-11-21T10:15:34;97911.28;;;11.18;66.25
49297;BME280;35163;48.878;18.040;2023-11-21T10:18:06;97908.56;;;11.22;66.18
49297;BME280;35163;48.878;18.040;2023-11-21T10:20:33;97905.75;;;11.26;65.99
49297;BME280;35163;48.878;18.040;2023-11-21T10:23:00;97909.84;;;11.32;65.78
49297;BME280;35163;48.878;18.040;2023-11-21T10:25:31;97912.22;;;11.37;66.52
49297;BME280;35163;48.878;18.040;2023-11-21T10:27:59;97908.69;;;11.39;65.84
49297;BME280;35163;48.878;18.040;2023-11-21T10:30:35;97911.13;;;11.42;65.79
49297;BME280;35163;48.878;18.040;2023-11-21T10:33:04;97905.75;;;11.47;65.63
49297;BME280;35163;48.878;18.040;2023-11-21T10:35:45;97899.63;;;11.50;65.52
49297;BME280;35163;48.878;18.040;2023-11-21T10:38:20;97897.66;;;11.55;65.92
49297;BME280;35163;48.878;18.040;2023-11-21T10:40:50;97886.31;;;11.58;65.80
49297;BME280;35163;48.878;18.040;2023-11-21T10:43:18;97897.25;;;11.64;65.40
49297;BME280;35163;48.878;18.040;2023-11-21T10:45:45;97896.22;;;11.69;66.07
49297;BME280;35163;48.878;18.040;2023-11-21T10:48:14;97891.66;;;11.74;65.64
49297;BME280;35163;48.878;18.040;2023-11-21T10:50:45;97890.59;;;11.78;65.45
49297;BME280;35163;48.878;18.040;2023-11-21T10:53:13;97892.22;;;11.81;65.95
49297;BME280;35163;48.878;18.040;2023-11-21T10:55:40;97887.75;;;11.84;65.98
49297;BME280;35163;48.878;18.040;2023-11-21T10:58:07;97881.59;;;11.87;65.88
49297;BME280;35163;48.878;18.040;2023-11-21T11:00:38;97885.03;;;11.87;66.19
49297;BME280;35163;48.878;18.040;2023-11-21T11:03:07;97883.13;;;11.91;66.08
49297;BME280;35163;48.878;18.040;2023-11-21T11:05:43;97886.50;;;11.93;65.91
49297;BME280;35163;48.878;18.040;2023-11-21T11:08:21;97886.34;;;11.96;66.08
49297;BME280;35163;48.878;18.040;2023-11-21T11:10:54;97890.69;;;11.96;65.82
49297;BME280;35163;48.878;18.040;2023-11-21T11:13:21;97884.53;;;11.98;65.95
49297;BME280;35163;48.878;18.040;2023-11-21T11:15:49;97888.09;;;11.96;66.17
49297;BME280;35163;48.878;18.040;2023-11-21T11:18:17;97887.88;;;12.00;65.79
49297;BME280;35163;48.878;18.040;2023-11-21T11:20:45;97886.91;;;12.03;65.60
49297;BME280;35163;48.878;18.040;2023-11-21T11:23:46;97879.22;;;12.01;65.74
49297;BME280;35163;48.878;18.040;2023-11-21T11:26:28;97881.59;;;12.06;65.54
49297;BME280;35163;48.878;18.040;2023-11-21T11:29:17;97883.22;;;12.09;65.85
49297;BME280;35163;48.878;18.040;2023-11-21T11:34:47;97876.06;;;12.14;65.28
49297;BME280;35163;48.878;18.040;2023-11-21T11:37:16;97876.03;;;12.15;65.46
49297;BME280;35163;48.878;18.040;2023-11-21T11:39:43;97877.69;;;12.17;65.06
49297;BME280;35163;48.878;18.040;2023-11-21T11:42:13;97875.88;;;12.19;65.21
49297;BME280;35163;48.878;18.040;2023-11-21T11:47:26;97866.22;;;12.22;65.24
49297;BME280;35163;48.878;18.040;2023-11-21T11:52:41;97860.03;;;12.25;65.29
49297;BME280;35163;48.878;18.040;2023-11-21T11:55:14;97856.59;;;12.24;65.33
49297;BME280;35163;48.878;18.040;2023-11-21T11:57:42;97860.88;;;12.25;65.16
49297;BME280;35163;48.878;18.040;2023-11-21T12:02:55;97856.50;;;12.26;64.83
49297;BME280;35163;48.878;18.040;2023-11-21T12:05:32;97855.63;;;12.27;65.16
49297;BME280;35163;48.878;18.040;2023-11-21T12:08:03;97859.19;;;12.24;64.72
49297;BME280;35163;48.878;18.040;2023-11-21T12:10:31;97854.06;;;12.23;64.54
49297;BME280;35163;48.878;18.040;2023-11-21T12:13:09;97852.41;;;12.22;64.94
49297;BME280;35163;48.878;18.040;2023-11-21T12:15:39;97852.41;;;12.22;64.92
49297;BME280;35163;48.878;18.040;2023-11-21T12:18:08;97853.25;;;12.22;65.15
49297;BME280;35163;48.878;18.040;2023-11-21T12:20:35;97856.59;;;12.24;65.34
49297;BME280;35163;48.878;18.040;2023-11-21T12:23:09;97860.03;;;12.25;64.98
49297;BME280;35163;48.878;18.040;2023-11-21T12:25:37;97855.69;;;12.25;64.67
49297;BME280;35163;48.878;18.040;2023-11-21T12:28:09;97857.22;;;12.30;65.04
49297;BME280;35163;48.878;18.040;2023-11-21T12:30:38;97856.38;;;12.29;65.05
49297;BME280;35163;48.878;18.040;2023-11-21T12:33:06;97862.19;;;12.34;65.06
49297;BME280;35163;48.878;18.040;2023-11-21T12:35:36;97854.41;;;12.34;65.26
49297;BME280;35163;48.878;18.040;2023-11-21T12:38:03;97849.06;;;12.37;64.83
49297;BME280;35163;48.878;18.040;2023-11-21T12:40:31;97848.94;;;12.41;64.81
49297;BME280;35163;48.878;18.040;2023-11-21T12:42:59;97846.19;;;12.44;64.93
49297;BME280;35163;48.878;18.040;2023-11-21T12:45:28;97842.53;;;12.48;65.12
49297;BME280;35163;48.878;18.040;2023-11-21T12:47:59;97832.00;;;12.51;64.94
49297;BME280;35163;48.878;18.040;2023-11-21T12:50:27;97837.81;;;12.56;64.81
49297;BME280;35163;48.878;18.040;2023-11-21T12:53:09;97838.50;;;12.60;64.91
49297;BME280;35163;48.878;18.040;2023-11-21T12:55:37;97842.53;;;12.66;64.87
49297;BME280;35163;48.878;18.040;2023-11-21T12:58:06;97842.41;;;12.69;64.55
49297;BME280;35163;48.878;18.040;2023-11-21T13:00:40;97843.91;;;12.73;64.35
49297;BME280;35163;48.878;18.040;2023-11-21T13:03:11;97842.09;;;12.75;64.25
49297;BME280;35163;48.878;18.040;2023-11-21T13:05:40;97850.63;;;12.77;63.90
49297;BME280;35163;48.878;18.040;2023-11-21T13:08:14;97846.06;;;12.82;63.50
49297;BME280;35163;48.878;18.040;2023-11-21T13:10:49;97844.16;;;12.86;63.14
49297;BME280;35163;48.878;18.040;2023-11-21T13:13:16;97848.34;;;12.88;63.27
49297;BME280;35163;48.878;18.040;2023-11-21T13:18:16;97854.06;;;12.95;63.50